createdAt,value
2018-01-30T00:01:56.490Z,90.80
2018-01-30T00:04:24.763Z,91.00
2018-01-30T00:06:52.330Z,91.00
2018-01-30T00:09:19.798Z,91.10
2018-01-30T00:11:47.378Z,91.10
2018-01-30T00:14:14.950Z,91.00
2018-01-30T00:16:42.420Z,90.90
2018-01-30T00:19:09.907Z,91.10
2018-01-30T00:21:38.150Z,91.20
2018-01-30T00:24:05.639Z,91.10
2018-01-30T00:26:33.136Z,91.10
2018-01-30T00:29:01.392Z,91.40
2018-01-30T00:31:28.862Z,91.30
2018-01-30T00:33:57.858Z,91.40
2018-01-30T00:36:25.342Z,91.40
2018-01-30T00:38:52.853Z,91.40
2018-01-30T00:41:20.342Z,91.30
2018-01-30T00:43:47.900Z,91.30
2018-01-30T00:46:15.375Z,91.40
2018-01-30T00:48:42.860Z,91.50
2018-01-30T00:51:10.409Z,91.40
2018-01-30T00:53:38.676Z,91.50
2018-01-30T00:56:06.963Z,91.60
2018-01-30T00:58:34.531Z,91.60
2018-01-30T01:01:02.065Z,91.40
2018-01-30T01:03:29.559Z,91.50
2018-01-30T01:05:57.031Z,91.60
2018-01-30T01:08:24.641Z,91.60
2018-01-30T01:10:52.139Z,91.70
2018-01-30T01:13:19.614Z,91.80
2018-01-30T01:15:47.155Z,91.90
2018-01-30T01:18:14.697Z,91.90
2018-01-30T01:20:42.266Z,91.90
2018-01-30T01:23:09.849Z,91.90
2018-01-30T01:25:37.523Z,91.90
2018-01-30T01:28:05.770Z,91.70
2018-01-30T01:30:33.287Z,91.80
2018-01-30T01:33:01.572Z,91.80
2018-01-30T01:35:29.818Z,91.80
2018-01-30T01:37:57.296Z,92.20
2018-01-30T01:40:24.791Z,91.80
2018-01-30T01:42:52.264Z,91.80
2018-01-30T01:45:19.830Z,91.90
2018-01-30T01:47:47.323Z,91.90
2018-01-30T01:50:15.562Z,92.00
2018-01-30T01:52:43.062Z,91.90
2018-01-30T01:55:10.560Z,91.90
2018-01-30T01:57:38.852Z,91.80
2018-01-30T02:00:06.334Z,91.80
2018-01-30T02:02:33.839Z,91.80
2018-01-30T02:05:01.330Z,91.80
2018-01-30T02:07:28.904Z,91.80
2018-01-30T02:09:57.523Z,91.50
2018-01-30T02:12:25.778Z,91.80
2018-01-30T02:14:53.251Z,91.80
2018-01-30T02:17:20.835Z,92.10
2018-01-30T02:19:48.502Z,92.10
2018-01-30T02:22:16.007Z,92.30
2018-01-30T02:24:43.557Z,92.40
2018-01-30T02:27:11.027Z,92.70
2018-01-30T02:29:39.279Z,92.70
2018-01-30T02:32:06.895Z,92.30
2018-01-30T02:34:35.181Z,92.30
2018-01-30T02:37:03.497Z,92.40
2018-01-30T02:39:31.007Z,92.30
2018-01-30T02:41:58.486Z,92.30
2018-01-30T02:44:25.959Z,92.40
2018-01-30T02:46:53.451Z,92.40
2018-01-30T02:49:21.731Z,92.70
2018-01-30T02:51:49.210Z,92.70
2018-01-30T02:54:17.466Z,92.30
2018-01-30T02:56:44.955Z,92.20
2018-01-30T02:59:12.562Z,92.10
2018-01-30T03:01:40.134Z,92.10
2018-01-30T03:04:07.712Z,92.00
2018-01-30T03:06:35.246Z,92.10
2018-01-30T03:09:03.520Z,92.60
2018-01-30T03:11:31.013Z,92.30
2018-01-30T03:13:58.579Z,92.30
2018-01-30T03:16:26.074Z,92.20
2018-01-30T03:18:53.552Z,92.40
2018-01-30T03:21:21.023Z,92.30
2018-01-30T03:23:48.514Z,92.40
2018-01-30T03:26:15.991Z,92.50
2018-01-30T03:28:43.463Z,92.50
2018-01-30T03:31:10.956Z,92.50
2018-01-30T03:33:38.436Z,92.50
2018-01-30T03:36:06.023Z,92.50
2018-01-30T03:38:33.599Z,92.50
2018-01-30T03:41:01.851Z,92.50
2018-01-30T03:43:29.359Z,92.50
2018-01-30T03:45:56.859Z,92.50
2018-01-30T03:48:24.421Z,92.60
2018-01-30T03:50:51.911Z,92.60
2018-01-30T03:53:19.422Z,92.50
2018-01-30T03:55:46.894Z,92.70
2018-01-30T03:58:14.379Z,92.70
2018-01-30T04:00:42.614Z,92.70
2018-01-30T04:03:10.123Z,92.70
2018-01-30T04:05:37.614Z,92.70
2018-01-30T04:08:05.911Z,92.90
2018-01-30T04:10:34.171Z,92.90
2018-01-30T04:13:01.664Z,92.90
2018-01-30T04:15:29.174Z,93.00
2018-01-30T04:17:56.651Z,93.00
2018-01-30T04:20:24.185Z,93.10
2018-01-30T04:22:51.671Z,93.20
2018-01-30T04:25:19.151Z,93.00
2018-01-30T04:27:46.698Z,92.90
2018-01-30T04:30:14.270Z,93.00
2018-01-30T04:32:41.813Z,92.90
2018-01-30T04:35:09.308Z,92.90
2018-01-30T04:37:37.742Z,92.90
2018-01-30T04:40:05.235Z,92.90
2018-01-30T04:42:32.828Z,93.00
2018-01-30T04:45:01.099Z,93.00
2018-01-30T04:47:29.369Z,93.40
2018-01-30T04:49:56.847Z,93.00
2018-01-30T04:52:24.338Z,93.00
2018-01-30T04:54:51.865Z,93.00
2018-01-30T04:57:20.062Z,93.00
2018-01-30T04:59:47.547Z,92.90
2018-01-30T05:02:15.035Z,93.00
2018-01-30T05:04:42.531Z,93.10
2018-01-30T05:07:10.829Z,92.90
2018-01-30T05:09:38.383Z,92.90
2018-01-30T05:12:06.667Z,93.00
2018-01-30T05:14:34.147Z,92.90
2018-01-30T05:17:02.473Z,92.90
2018-01-30T05:19:30.441Z,92.90
2018-01-30T05:21:57.915Z,92.80
2018-01-30T05:24:25.443Z,92.80
2018-01-30T05:26:53.018Z,92.80
2018-01-30T05:29:20.518Z,93.10
2018-01-30T05:31:47.992Z,93.10
2018-01-30T05:34:15.530Z,92.80
2018-01-30T05:36:43.031Z,92.90
2018-01-30T05:39:10.571Z,92.80
2018-01-30T05:41:38.177Z,92.80
2018-01-30T05:44:05.676Z,92.90
2018-01-30T05:46:33.186Z,92.80
2018-01-30T05:49:00.872Z,92.80
2018-01-30T05:51:29.130Z,92.80
2018-01-30T05:53:56.726Z,92.80
2018-01-30T05:56:24.295Z,92.80
2018-01-30T05:58:51.766Z,92.90
2018-01-30T06:01:19.255Z,92.80
2018-01-30T06:03:47.498Z,92.80
2018-01-30T06:06:15.000Z,92.80
2018-01-30T06:08:42.563Z,92.90
2018-01-30T06:11:10.041Z,92.70
2018-01-30T06:13:37.535Z,92.50
2018-01-30T06:16:05.035Z,92.90
2018-01-30T06:18:32.563Z,92.70
2018-01-30T06:21:00.821Z,93.00
2018-01-30T06:23:28.295Z,92.90
2018-01-30T06:25:55.786Z,92.70
2018-01-30T06:28:24.096Z,92.80
2018-01-30T06:30:51.598Z,92.70
2018-01-30T06:33:19.109Z,92.50
2018-01-30T06:35:46.592Z,93.40
2018-01-30T06:38:14.851Z,92.60
2018-01-30T06:40:42.443Z,92.50
2018-01-30T06:43:09.936Z,92.30
2018-01-30T06:45:37.524Z,92.40
2018-01-30T06:48:05.019Z,92.40
2018-01-30T06:50:32.534Z,92.50
2018-01-30T06:53:00.804Z,93.30
2018-01-30T06:55:28.299Z,93.30
2018-01-30T06:57:56.538Z,93.40
2018-01-30T07:00:24.038Z,93.30
2018-01-30T07:02:51.526Z,93.30
2018-01-30T07:05:19.772Z,93.10
2018-01-30T07:07:47.376Z,93.10
2018-01-30T07:10:14.975Z,93.10
2018-01-30T07:12:42.447Z,93.00
2018-01-30T07:15:09.983Z,93.00
2018-01-30T07:17:37.484Z,93.30
2018-01-30T07:20:05.764Z,93.30
2018-01-30T07:22:34.026Z,93.20
2018-01-30T07:25:02.363Z,93.00
2018-01-30T07:27:30.177Z,92.90
2018-01-30T07:29:57.702Z,92.80
2018-01-30T07:32:25.275Z,92.90
2018-01-30T07:34:52.848Z,92.70
2018-01-30T07:37:20.326Z,92.60
2018-01-30T07:39:47.890Z,92.90
2018-01-30T07:42:15.530Z,92.90
2018-01-30T07:44:43.002Z,92.90
2018-01-30T07:47:10.474Z,92.90
2018-01-30T07:49:38.257Z,93.00
2018-01-30T07:52:05.742Z,92.80
2018-01-30T07:54:34.002Z,92.80
2018-01-30T07:57:01.944Z,92.80
2018-01-30T07:59:29.442Z,92.70
2018-01-30T08:01:56.918Z,92.60
2018-01-30T08:04:24.803Z,92.40
2018-01-30T08:06:52.310Z,92.50
2018-01-30T08:09:20.547Z,92.70
2018-01-30T08:11:48.345Z,92.70
2018-01-30T08:14:15.813Z,93.00
2018-01-30T08:16:43.290Z,92.70
2018-01-30T08:19:10.854Z,92.50
2018-01-30T08:21:38.342Z,92.50
2018-01-30T08:24:06.590Z,92.20
2018-01-30T08:26:34.298Z,92.20
2018-01-30T08:29:02.546Z,93.00
2018-01-30T08:31:30.367Z,92.70
2018-01-30T08:33:58.642Z,92.80
2018-01-30T08:36:26.114Z,92.70
2018-01-30T08:38:53.586Z,92.60
2018-01-30T08:41:21.428Z,92.60
2018-01-30T08:43:48.966Z,92.80
2018-01-30T08:46:16.539Z,92.70
2018-01-30T08:48:44.111Z,92.50
2018-01-30T08:51:11.683Z,92.30
2018-01-30T08:53:39.178Z,92.20
2018-01-30T08:56:06.729Z,92.20
2018-01-30T08:58:34.211Z,92.80
2018-01-30T09:01:01.755Z,94.70
2018-01-30T09:03:30.854Z,91.10
2018-01-30T09:05:59.138Z,90.60
2018-01-30T09:08:26.703Z,90.60
2018-01-30T09:10:54.483Z,89.50
2018-01-30T09:13:22.805Z,85.40
2018-01-30T09:15:50.327Z,85.40
2018-01-30T09:18:17.811Z,82.80
2018-01-30T09:20:45.286Z,81.60
2018-01-30T09:23:12.764Z,82.80
2018-01-30T09:25:41.346Z,81.90
2018-01-30T09:28:08.828Z,81.90
2018-01-30T09:30:36.310Z,81.90
2018-01-30T09:33:04.674Z,78.00
2018-01-30T09:35:32.156Z,78.00
2018-01-30T09:38:00.442Z,74.90
2018-01-30T09:40:28.727Z,72.10
2018-01-30T09:42:56.205Z,72.10
2018-01-30T09:45:24.474Z,70.00
2018-01-30T09:47:52.054Z,70.10
2018-01-30T09:50:19.540Z,67.50
2018-01-30T09:52:47.814Z,66.90
2018-01-30T09:55:15.351Z,66.90
2018-01-30T09:57:42.830Z,65.90
2018-01-30T10:00:10.325Z,64.40
2018-01-30T10:02:38.128Z,63.10
2018-01-30T10:05:06.393Z,64.10
2018-01-30T10:07:34.002Z,63.90
2018-01-30T10:10:01.511Z,62.50
2018-01-30T10:12:28.990Z,60.50
2018-01-30T10:14:56.469Z,59.10
2018-01-30T10:17:23.962Z,60.10
2018-01-30T10:19:52.213Z,63.80
2018-01-30T10:22:19.694Z,63.80
2018-01-30T10:24:47.962Z,62.00
2018-01-30T10:27:15.445Z,62.00
2018-01-30T10:29:42.922Z,60.80
2018-01-30T10:32:10.491Z,59.20
2018-01-30T10:34:37.974Z,57.50
2018-01-30T10:37:05.470Z,58.80
2018-01-30T10:39:33.777Z,56.10
2018-01-30T10:42:01.262Z,56.00
2018-01-30T10:44:28.742Z,56.90
2018-01-30T10:46:56.234Z,54.60
2018-01-30T10:49:23.852Z,55.30
2018-01-30T10:51:52.102Z,57.10
2018-01-30T10:54:19.601Z,56.90
2018-01-30T10:56:47.867Z,55.10
2018-01-30T10:59:16.114Z,54.80
2018-01-30T11:01:43.660Z,54.80
2018-01-30T11:04:11.233Z,54.50
2018-01-30T11:06:38.806Z,55.60
2018-01-30T11:09:06.338Z,55.00
2018-01-30T11:11:33.819Z,54.30
2018-01-30T11:14:01.420Z,51.30
2018-01-30T11:16:29.182Z,54.00
2018-01-30T11:18:56.735Z,53.60
2018-01-30T11:21:24.206Z,53.60
2018-01-30T11:23:51.697Z,55.60
2018-01-30T11:26:19.939Z,56.80
2018-01-30T11:28:47.414Z,56.80
2018-01-30T11:31:15.159Z,56.60
2018-01-30T11:33:42.684Z,57.80
2018-01-30T11:36:10.150Z,57.70
2018-01-30T11:38:38.038Z,58.00
2018-01-30T11:41:05.533Z,59.90
2018-01-30T11:43:33.107Z,61.50
2018-01-30T11:46:00.950Z,62.40
2018-01-30T11:48:28.519Z,62.80
2018-01-30T11:50:56.097Z,60.80
2018-01-30T11:53:23.587Z,60.70
2018-01-30T11:55:51.824Z,61.40
2018-01-30T11:58:19.302Z,61.20
2018-01-30T12:00:46.827Z,62.30
2018-01-30T12:03:14.302Z,63.70
2018-01-30T12:05:41.777Z,63.10
2018-01-30T12:08:09.282Z,63.70
2018-01-30T12:10:36.774Z,63.00
2018-01-30T12:13:04.352Z,64.10
2018-01-30T12:15:32.153Z,64.40
2018-01-30T12:17:59.639Z,64.30
2018-01-30T12:20:27.113Z,64.40
2018-01-30T12:22:54.638Z,64.40
2018-01-30T12:25:22.210Z,64.00
2018-01-30T12:27:49.779Z,64.40
2018-01-30T12:30:17.331Z,64.80
2018-01-30T12:32:44.806Z,65.30
2018-01-30T12:35:12.282Z,67.10
2018-01-30T12:37:39.796Z,67.80
2018-01-30T12:40:07.278Z,66.70
2018-01-30T12:42:34.758Z,67.00
2018-01-30T12:45:02.310Z,66.20
2018-01-30T12:47:29.791Z,64.70
2018-01-30T12:49:57.459Z,62.30
2018-01-30T12:52:24.963Z,60.00
2018-01-30T12:54:52.460Z,59.90
2018-01-30T12:57:20.033Z,58.40
2018-01-30T12:59:48.010Z,59.50
2018-01-30T13:02:15.587Z,59.90
2018-01-30T13:04:43.062Z,59.60
2018-01-30T13:07:10.634Z,59.90
2018-01-30T13:09:38.114Z,61.20
2018-01-30T13:12:06.372Z,59.70
2018-01-30T13:14:33.880Z,59.60
2018-01-30T13:17:01.380Z,60.00
2018-01-30T13:19:28.854Z,61.20
2018-01-30T13:21:56.637Z,59.60
2018-01-30T13:24:24.121Z,59.30
2018-01-30T13:26:51.614Z,58.10
2018-01-30T13:29:19.494Z,57.50
2018-01-30T13:31:46.966Z,57.40
2018-01-30T13:34:14.443Z,58.10
2018-01-30T13:36:42.006Z,57.90
2018-01-30T13:39:09.499Z,59.20
2018-01-30T13:41:37.747Z,57.80
2018-01-30T13:44:05.561Z,57.80
2018-01-30T13:46:33.869Z,58.30
2018-01-30T13:49:01.358Z,58.30
2018-01-30T13:51:28.955Z,59.20
2018-01-30T13:53:56.480Z,58.80
2018-01-30T13:56:23.956Z,56.90
2018-01-30T13:58:51.486Z,57.70
2018-01-30T14:01:19.055Z,59.10
2018-01-30T14:03:46.530Z,59.20
2018-01-30T14:06:14.102Z,57.30
2018-01-30T14:08:41.578Z,57.10
2018-01-30T14:11:09.072Z,57.70
2018-01-30T14:13:38.250Z,57.50
2018-01-30T14:16:06.560Z,59.00
2018-01-30T14:18:34.834Z,60.90
2018-01-30T14:21:02.336Z,61.00
2018-01-30T14:23:29.826Z,60.40
2018-01-30T14:25:57.346Z,58.60
2018-01-30T14:28:25.219Z,59.50
2018-01-30T14:30:52.689Z,60.00
2018-01-30T14:33:20.170Z,60.60
2018-01-30T14:35:47.768Z,61.10
2018-01-30T14:38:15.243Z,62.00
2018-01-30T14:40:44.477Z,62.90
2018-01-30T14:43:11.990Z,64.30
2018-01-30T14:45:39.479Z,63.10
2018-01-30T14:48:07.780Z,62.70
2018-01-30T14:50:36.838Z,61.00
2018-01-30T14:53:04.332Z,61.10
2018-01-30T14:55:32.576Z,62.40
2018-01-30T14:58:00.072Z,62.40
2018-01-30T15:00:27.539Z,62.00
2018-01-30T15:02:55.016Z,63.50
2018-01-30T15:05:22.798Z,62.40
2018-01-30T15:07:50.274Z,63.60
2018-01-30T15:10:17.755Z,62.80
2018-01-30T15:12:45.318Z,65.30
2018-01-30T15:15:12.898Z,64.80
2018-01-30T15:17:40.371Z,65.20
2018-01-30T15:20:07.886Z,66.90
2018-01-30T15:22:35.372Z,66.20
2018-01-30T15:25:02.883Z,66.30
2018-01-30T15:27:31.166Z,68.80
2018-01-30T15:29:59.583Z,68.70
2018-01-30T15:32:27.450Z,68.70
2018-01-30T15:34:55.698Z,68.60
2018-01-30T15:37:24.041Z,68.40
2018-01-30T15:39:51.616Z,69.10
2018-01-30T15:42:19.187Z,69.30
2018-01-30T15:44:46.759Z,69.20
2018-01-30T15:47:14.294Z,71.10
2018-01-30T15:49:41.870Z,70.10
2018-01-30T15:52:09.457Z,70.60
2018-01-30T15:54:37.705Z,72.00
2018-01-30T15:57:06.226Z,72.00
2018-01-30T15:59:33.713Z,72.10
2018-01-30T16:02:01.973Z,73.30
2018-01-30T16:04:29.786Z,73.20
2018-01-30T16:06:58.014Z,74.20
2018-01-30T16:09:25.495Z,74.30
2018-01-30T16:11:53.299Z,74.80
2018-01-30T16:14:21.522Z,74.80
2018-01-30T16:16:49.978Z,75.70
2018-01-30T16:19:17.918Z,75.60
2018-01-30T16:21:45.395Z,75.50
2018-01-30T16:24:12.894Z,76.30
2018-01-30T16:26:40.681Z,76.90
2018-01-30T16:29:08.154Z,77.80
2018-01-30T16:31:36.427Z,79.00
2018-01-30T16:34:04.944Z,79.00
2018-01-30T16:36:33.770Z,78.70
2018-01-30T16:39:02.232Z,78.50
2018-01-30T16:41:30.510Z,79.60
2018-01-30T16:43:59.128Z,79.60
2018-01-30T16:46:27.395Z,80.70
2018-01-30T16:48:54.886Z,80.70
2018-01-30T16:51:23.154Z,81.70
2018-01-30T16:53:50.627Z,81.70
2018-01-30T16:56:19.218Z,82.00
2018-01-30T16:58:46.829Z,82.00
2018-01-30T17:01:15.023Z,82.30
2018-01-30T17:03:42.858Z,82.50
2018-01-30T17:06:10.438Z,82.60
2018-01-30T17:08:37.917Z,83.50
2018-01-30T17:11:06.183Z,85.40
2018-01-30T17:13:33.903Z,85.30
2018-01-30T17:16:01.410Z,84.90
2018-01-30T17:18:29.174Z,84.40
2018-01-30T17:20:56.646Z,84.90
2018-01-30T17:23:24.980Z,85.00
2018-01-30T17:25:53.913Z,85.70
2018-01-30T17:28:22.271Z,85.70
2018-01-30T17:30:49.750Z,86.00
2018-01-30T17:33:17.243Z,85.70
2018-01-30T17:35:44.782Z,85.80
2018-01-30T17:38:12.254Z,85.70
2018-01-30T17:40:39.834Z,85.10
2018-01-30T17:43:07.306Z,84.40
2018-01-30T17:45:35.557Z,84.40
2018-01-30T17:48:03.071Z,84.30
2018-01-30T17:50:31.322Z,84.60
2018-01-30T17:52:58.794Z,84.60
2018-01-30T17:55:26.482Z,84.40
2018-01-30T17:57:54.562Z,84.30
2018-01-30T18:00:22.030Z,84.30
2018-01-30T18:02:50.442Z,84.30
2018-01-30T18:05:17.915Z,86.10
2018-01-30T18:07:46.204Z,83.70
2018-01-30T18:10:15.258Z,84.00
2018-01-30T18:12:45.226Z,83.20
2018-01-30T18:15:13.478Z,83.50
2018-01-30T18:17:40.987Z,84.10
2018-01-30T18:20:08.473Z,84.20
2018-01-30T18:22:36.725Z,84.00
2018-01-30T18:25:05.750Z,84.00
2018-01-30T18:27:33.234Z,83.60
2018-01-30T18:30:01.514Z,83.70
2018-01-30T18:32:29.784Z,84.00
2018-01-30T18:34:57.254Z,84.00
2018-01-30T18:37:24.742Z,83.90
2018-01-30T18:39:52.226Z,84.00
2018-01-30T18:42:21.314Z,83.40
2018-01-30T18:44:48.883Z,83.40
2018-01-30T18:47:16.454Z,83.20
2018-01-30T18:49:43.931Z,83.10
2018-01-30T18:52:11.408Z,83.10
2018-01-30T18:54:38.907Z,82.70
2018-01-30T18:57:06.386Z,82.60
2018-01-30T18:59:34.767Z,82.10
2018-01-30T19:02:04.944Z,82.00
2018-01-30T19:04:32.436Z,81.90
2018-01-30T19:07:00.015Z,81.70
2018-01-30T19:09:29.844Z,82.20
2018-01-30T19:11:57.314Z,81.40
2018-01-30T19:14:24.878Z,83.00
2018-01-30T19:16:53.146Z,82.20
2018-01-30T19:19:21.795Z,81.90
2018-01-30T19:21:50.478Z,82.00
2018-01-30T19:24:18.789Z,81.80
2018-01-30T19:26:46.259Z,81.50
2018-01-30T19:29:14.503Z,81.20
2018-01-30T19:31:41.987Z,81.20
2018-01-30T19:34:09.458Z,80.80
2018-01-30T19:36:37.070Z,81.70
2018-01-30T19:39:45.310Z,81.40
2018-01-30T19:42:16.626Z,80.80
2018-01-30T19:44:44.897Z,80.10
2018-01-30T19:47:12.378Z,79.90
2018-01-30T19:49:39.943Z,79.70
2018-01-30T19:52:08.958Z,79.30
2018-01-30T19:54:36.430Z,79.30
2018-01-30T19:57:03.910Z,80.80
2018-01-30T19:59:32.184Z,80.90
2018-01-30T20:01:59.660Z,80.80
2018-01-30T20:04:30.499Z,80.80
2018-01-30T20:06:58.024Z,81.30
2018-01-30T20:09:26.262Z,81.20
2018-01-30T20:11:53.738Z,81.20
2018-01-30T20:14:22.050Z,81.20
2018-01-30T20:16:50.575Z,80.70
2018-01-30T20:19:18.044Z,80.70
2018-01-30T20:21:47.373Z,80.20
2018-01-30T20:24:14.850Z,80.10
2018-01-30T20:26:44.750Z,79.90
2018-01-30T20:29:13.119Z,79.90
2018-01-30T20:31:40.590Z,79.90
2018-01-30T20:34:08.174Z,79.40
2018-01-30T20:36:35.972Z,79.40
2018-01-30T20:39:03.447Z,79.30
2018-01-30T20:41:31.029Z,79.40
2018-01-30T20:43:58.600Z,79.50
2018-01-30T20:46:26.062Z,79.60
2018-01-30T20:48:54.768Z,79.80
2018-01-30T20:51:23.406Z,79.80
2018-01-30T20:53:50.874Z,80.10
2018-01-30T20:56:18.342Z,80.40
2018-01-30T20:58:46.546Z,80.60
2018-01-30T21:01:14.019Z,80.50
2018-01-30T21:03:41.506Z,80.90
2018-01-30T21:06:09.944Z,81.20
2018-01-30T21:08:37.436Z,81.50
2018-01-30T21:11:04.920Z,81.70
2018-01-30T21:13:32.426Z,81.50
2018-01-30T21:16:00.740Z,80.80
2018-01-30T21:18:29.046Z,80.80
2018-01-30T21:20:56.542Z,80.80
2018-01-30T21:23:24.008Z,81.50
2018-01-30T21:25:52.618Z,80.80
2018-01-30T21:28:20.114Z,81.10
2018-01-30T21:30:49.126Z,81.70
2018-01-30T21:33:17.366Z,81.30
2018-01-30T21:35:46.851Z,81.20
2018-01-30T21:38:14.398Z,81.00
2018-01-30T21:40:41.862Z,81.00
2018-01-30T21:43:10.518Z,80.60
2018-01-30T21:45:38.770Z,81.90
2018-01-30T21:48:07.029Z,80.80
2018-01-30T21:50:34.828Z,80.80
2018-01-30T21:53:02.304Z,80.20
2018-01-30T21:55:30.519Z,80.60
2018-01-30T21:57:58.254Z,79.90
2018-01-30T22:00:25.830Z,80.00
2018-01-30T22:02:53.302Z,80.00
2018-01-30T22:05:20.911Z,79.70
2018-01-30T22:07:48.384Z,80.00
2018-01-30T22:10:15.866Z,79.60
2018-01-30T22:12:43.386Z,79.20
2018-01-30T22:15:11.011Z,79.50
2018-01-30T22:17:38.505Z,79.30
2018-01-30T22:20:06.010Z,78.30
2018-01-30T22:22:33.491Z,78.00
2018-01-30T22:25:00.989Z,78.10
2018-01-30T22:27:28.479Z,78.00
2018-01-30T22:29:56.794Z,78.00
2018-01-30T22:32:24.277Z,77.90
2018-01-30T22:34:51.798Z,77.90
2018-01-30T22:37:19.269Z,77.90
2018-01-30T22:39:46.790Z,78.00
2018-01-30T22:42:14.669Z,78.00
2018-01-30T22:44:42.241Z,78.10
